Terminal Aerodrome Forecast
Issued by NWS

Home | Current Version | Previous Version | Text Only | Print | Product List | Glossary On
Versions: 1 2 3 4 5 6 7 8 9 10 11 12 13 14 15 16
000
FTPA31 PHFO 231737
TAFSTU
TAF
NSTU 231737Z 2318/2418 12011KT P6SM VCTS FEW010CB BKN035 BKN080
      TEMPO 2320/2324 VRB15G25KT 2SM +TSRA SCT008CB BKN015 OVC035
     FM240000 10012KT P6SM VCSH FEW010 SCT020 BKN040
     FM241600 11017G24KT P6SM SCT020 SCT060=

USA.gov is the U.S. government's official web portal to all federal, state and local government web resources and services.